Time;durP1;ratioP1;P1;durP2;ratioP2;P2;SDS_P1;SDS_P2;PMS_P1;PMS_P2;Temp;Humidity;BMP_temperature;BMP_pressure;BME280_temperature;BME280_humidity;BME280_pressure;Samples;Min_cycle;Max_cycle;Signal;HPM_P1;HPM_P2
2021/07/11 00:00:55;;;;;;;7.90;2.30;;;18.50;99.90;;;;;;4975853;28;20027;-91
2021/07/11 00:03:21;;;;;;;7.90;2.65;;;18.50;99.90;;;;;;4974121;28;20035;-91
2021/07/11 00:05:46;;;;;;;5.45;2.17;;;18.50;99.90;;;;;;4978651;28;20019;-91
2021/07/11 00:08:12;;;;;;;7.97;2.53;;;18.50;99.90;;;;;;4958002;28;20279;-91
2021/07/11 00:10:38;;;;;;;8.77;2.20;;;18.60;99.90;;;;;;4978967;28;20030;-91
2021/07/11 00:13:04;;;;;;;8.07;2.20;;;18.60;99.90;;;;;;4975716;28;20031;-92
2021/07/11 00:15:30;;;;;;;5.00;2.10;;;18.60;99.90;;;;;;4949571;28;20043;-91
2021/07/11 00:17:56;;;;;;;6.82;2.10;;;18.60;99.90;;;;;;4956201;28;20040;-90
2021/07/11 00:20:24;;;;;;;6.47;2.35;;;18.70;99.90;;;;;;4935496;28;20028;-91
2021/07/11 00:22:50;;;;;;;4.60;1.70;;;18.60;99.90;;;;;;4937207;28;20050;-91
2021/07/11 00:25:16;;;;;;;5.28;1.73;;;18.60;99.90;;;;;;4952520;28;20057;-91
2021/07/11 00:27:46;;;;;;;5.38;1.70;;;18.60;99.90;;;;;;4935278;28;20096;-91
2021/07/11 00:30:29;;;;;;;8.57;2.17;;;18.60;99.90;;;;;;4920449;29;20074;-90
2021/07/11 00:32:55;;;;;;;6.93;1.95;;;18.50;99.90;;;;;;4932087;29;20060;-91
2021/07/11 00:35:21;;;;;;;5.40;2.17;;;18.60;99.90;;;;;;4921740;29;20036;-91
2021/07/11 00:37:50;;;;;;;6.20;2.20;;;18.50;99.90;;;;;;4927114;28;20070;-91
2021/07/11 00:40:20;;;;;;;11.25;2.58;;;18.50;99.90;;;;;;4943213;28;20071;-91
2021/07/11 00:42:46;;;;;;;6.75;2.17;;;18.60;99.90;;;;;;4933705;29;20103;-91
2021/07/11 00:45:16;;;;;;;7.90;2.40;;;18.50;99.90;;;;;;4925649;29;20048;-90
2021/07/11 00:47:43;;;;;;;8.57;2.55;;;18.60;99.90;;;;;;4919694;28;20024;-91
2021/07/11 00:50:12;;;;;;;5.07;2.05;;;18.50;99.90;;;;;;4935265;28;20052;-91
2021/07/11 00:52:39;;;;;;;7.05;2.10;;;18.50;99.90;;;;;;4938050;28;20018;-91
2021/07/11 00:55:06;;;;;;;5.70;2.10;;;18.40;99.90;;;;;;4939975;28;20058;-91
2021/07/11 00:57:35;;;;;;;6.45;2.90;;;18.40;99.90;;;;;;4936941;28;20032;-92
2021/07/11 01:00:06;;;;;;;7.75;2.50;;;18.30;99.90;;;;;;4939843;28;20191;-91
2021/07/11 01:02:39;;;;;;;5.85;2.67;;;18.40;99.90;;;;;;4937165;28;20023;-91
2021/07/11 01:05:08;;;;;;;5.07;1.83;;;18.40;99.90;;;;;;4934809;29;20039;-91
2021/07/11 01:07:37;;;;;;;4.38;2.13;;;18.30;99.90;;;;;;4935143;29;20526;-91
2021/07/11 01:10:13;;;;;;;6.00;2.45;;;18.30;99.90;;;;;;4936568;28;20036;-91
2021/07/11 01:12:45;;;;;;;7.45;2.13;;;18.40;99.90;;;;;;4935207;28;20036;-91
2021/07/11 01:15:11;;;;;;;6.80;2.13;;;18.30;99.90;;;;;;4934907;29;20038;-91
2021/07/11 01:17:41;;;;;;;9.43;2.20;;;18.40;99.90;;;;;;4936149;28;20040;-91
2021/07/11 01:20:42;;;;;;;8.43;2.00;;;18.50;99.90;;;;;;4936653;28;22332;-91
2021/07/11 01:23:37;;;;;;;5.32;2.00;;;18.50;99.90;;;;;;4897533;29;20513;-91
2021/07/11 01:26:13;;;;;;;6.53;2.08;;;18.40;99.90;;;;;;4927818;28;20075;-91
2021/07/11 01:29:01;;;;;;;8.40;2.40;;;18.40;99.90;;;;;;4936956;28;20519;-91
2021/07/11 01:31:27;;;;;;;5.88;2.10;;;18.40;99.90;;;;;;4936147;28;20039;-91
2021/07/11 01:33:54;;;;;;;6.43;2.03;;;18.40;99.90;;;;;;4935436;29;20090;-91
2021/07/11 01:36:21;;;;;;;3.83;1.83;;;18.40;99.90;;;;;;4923006;29;20401;-91
2021/07/11 01:38:49;;;;;;;5.22;2.13;;;18.40;99.90;;;;;;4934347;29;20449;-91
2021/07/11 01:41:20;;;;;;;4.45;2.10;;;18.40;99.90;;;;;;4936102;28;20083;-91
2021/07/11 01:43:52;;;;;;;5.13;1.92;;;18.40;99.90;;;;;;4936965;28;20098;-90
2021/07/11 01:46:19;;;;;;;5.20;2.20;;;18.40;99.90;;;;;;4940425;28;20091;-91
2021/07/11 01:48:46;;;;;;;3.67;2.00;;;18.40;99.90;;;;;;4937339;28;20128;-91
2021/07/11 01:51:15;;;;;;;5.45;2.13;;;18.30;99.90;;;;;;4933294;28;20031;-91
2021/07/11 01:53:45;;;;;;;6.05;2.28;;;18.30;99.90;;;;;;4933612;29;20016;-91
2021/07/11 01:56:11;;;;;;;4.72;2.15;;;18.30;99.90;;;;;;4937182;29;20059;-91
2021/07/11 01:58:38;;;;;;;5.35;2.08;;;18.40;99.90;;;;;;4933252;28;20035;-91
2021/07/11 02:01:07;;;;;;;4.50;1.95;;;18.40;99.90;;;;;;4936485;28;20107;-92
2021/07/11 02:03:34;;;;;;;5.60;2.30;;;18.40;99.90;;;;;;4935656;28;20032;-91
2021/07/11 02:06:00;;;;;;;3.67;1.80;;;18.40;99.90;;;;;;4933925;29;20409;-91
2021/07/11 02:08:25;;;;;;;5.15;2.15;;;18.40;99.90;;;;;;4933013;29;20023;-91
2021/07/11 02:10:54;;;;;;;2.95;1.92;;;18.30;99.90;;;;;;4939861;28;20036;-91
2021/07/11 02:13:43;;;;;;;5.32;2.03;;;18.30;99.90;;;;;;4934901;29;20551;-90
2021/07/11 02:16:38;;;;;;;6.72;2.20;;;18.40;99.90;;;;;;4962580;28;20500;-91
2021/07/11 02:19:06;;;;;;;4.03;1.90;;;18.30;99.90;;;;;;4958582;28;20106;-91
2021/07/11 02:21:32;;;;;;;4.47;1.88;;;18.30;99.90;;;;;;4959158;28;20089;-91
2021/07/11 02:24:03;;;;;;;4.00;1.75;;;18.30;99.90;;;;;;4976714;28;20023;-91
2021/07/11 02:26:32;;;;;;;3.33;1.80;;;18.40;99.90;;;;;;4958267;28;20492;-91
2021/07/11 02:28:59;;;;;;;3.35;1.80;;;18.40;99.90;;;;;;4958414;28;20038;-94
2021/07/11 02:31:29;;;;;;;3.90;1.80;;;18.50;99.90;;;;;;4959204;28;20023;-91
2021/07/11 02:33:55;;;;;;;4.80;1.60;;;18.40;99.90;;;;;;4963079;28;20019;-91
2021/07/11 02:36:32;;;;;;;3.00;1.70;;;18.40;99.90;;;;;;4959111;28;20090;-90
2021/07/11 02:39:12;;;;;;;4.80;1.80;;;18.30;99.90;;;;;;4977790;28;20057;-91
2021/07/11 02:42:00;;;;;;;4.00;1.83;;;18.30;99.90;;;;;;4976378;28;20041;-91
2021/07/11 02:44:27;;;;;;;4.35;1.77;;;18.30;99.90;;;;;;4960183;28;20507;-92
2021/07/11 02:47:02;;;;;;;2.90;1.60;;;18.30;99.90;;;;;;4976262;28;20496;-91
2021/07/11 02:49:34;;;;;;;1.63;1.45;;;18.30;99.90;;;;;;4961235;28;20441;-91
2021/07/11 02:52:04;;;;;;;3.03;1.75;;;18.30;99.90;;;;;;4959090;28;20074;-91
2021/07/11 02:54:43;;;;;;;3.13;1.75;;;18.40;99.90;;;;;;4964430;28;20041;-91
2021/07/11 02:57:10;;;;;;;5.30;2.15;;;18.40;99.90;;;;;;4983495;28;20107;-91
2021/07/11 02:59:37;;;;;;;3.67;1.63;;;18.40;99.90;;;;;;4978754;28;20050;-91
2021/07/11 03:02:06;;;;;;;3.78;1.48;;;18.40;99.90;;;;;;4976189;28;20038;-91
2021/07/11 03:04:36;;;;;;;4.00;1.80;;;18.40;99.90;;;;;;4979955;28;20039;-90
2021/07/11 03:07:14;;;;;;;3.92;1.50;;;18.30;99.90;;;;;;4977004;28;20483;-91
2021/07/11 03:09:41;;;;;;;4.15;1.90;;;18.40;99.90;;;;;;4976572;28;20046;-91
2021/07/11 03:12:07;;;;;;;4.97;1.90;;;18.40;99.90;;;;;;4960597;28;20037;-91
2021/07/11 03:14:34;;;;;;;3.17;1.80;;;18.40;99.90;;;;;;4985980;28;20117;-91
2021/07/11 03:17:02;;;;;;;2.05;1.50;;;18.60;99.90;;;;;;4961600;28;20050;-91
2021/07/11 03:19:29;;;;;;;4.18;1.63;;;18.60;99.90;;;;;;4973639;28;20039;-91
2021/07/11 03:21:59;;;;;;;3.00;1.45;;;18.60;99.90;;;;;;4960434;28;20033;-91
2021/07/11 03:24:30;;;;;;;3.05;1.40;;;18.50;99.90;;;;;;4975310;28;20578;-91
2021/07/11 03:26:58;;;;;;;2.22;1.20;;;18.60;99.90;;;;;;4959462;28;20038;-90
2021/07/11 03:29:41;;;;;;;2.53;1.30;;;18.60;99.90;;;;;;4956258;28;20031;-91
2021/07/11 03:32:10;;;;;;;4.20;1.45;;;18.60;99.90;;;;;;4960963;28;20026;-91
2021/07/11 03:34:36;;;;;;;3.00;2.05;;;18.60;99.90;;;;;;4975911;28;20038;-91
2021/07/11 03:37:09;;;;;;;3.38;2.55;;;18.50;99.90;;;;;;4976840;28;20027;-91
2021/07/11 03:39:41;;;;;;;4.50;2.78;;;18.50;99.90;;;;;;4977488;28;20495;-91
2021/07/11 03:42:08;;;;;;;3.38;2.10;;;18.60;99.90;;;;;;4976598;28;20039;-91
2021/07/11 03:44:35;;;;;;;5.20;1.60;;;18.60;99.90;;;;;;4958389;28;20054;-90
2021/07/11 03:47:04;;;;;;;3.70;1.77;;;18.60;99.90;;;;;;4960430;28;20022;-91
2021/07/11 03:49:32;;;;;;;4.53;1.55;;;18.60;99.90;;;;;;4978648;28;20038;-91
2021/07/11 03:52:02;;;;;;;3.80;1.60;;;18.50;99.90;;;;;;4958039;28;20034;-90
2021/07/11 03:54:32;;;;;;;3.28;2.10;;;18.60;99.90;;;;;;4961129;28;20038;-91
2021/07/11 03:56:59;;;;;;;4.10;1.88;;;18.60;99.90;;;;;;4974963;28;20023;-91
2021/07/11 03:59:27;;;;;;;5.07;2.30;;;18.70;99.90;;;;;;4975242;28;20041;-91
2021/07/11 04:01:53;;;;;;;5.88;1.98;;;18.70;99.90;;;;;;4976421;28;20019;-91
2021/07/11 04:04:24;;;;;;;4.68;2.03;;;18.60;99.90;;;;;;4975831;28;20085;-91
2021/07/11 04:06:51;;;;;;;7.00;2.00;;;18.60;99.90;;;;;;4977356;28;20035;-91
2021/07/11 04:09:21;;;;;;;4.85;1.65;;;18.60;99.90;;;;;;4959065;28;20035;-91
2021/07/11 04:11:47;;;;;;;4.00;1.85;;;18.50;99.90;;;;;;4958629;28;20010;-91
2021/07/11 04:14:18;;;;;;;6.32;2.13;;;18.50;99.90;;;;;;4962312;28;20015;-91
2021/07/11 04:16:47;;;;;;;5.05;1.98;;;18.50;99.90;;;;;;4973697;28;20503;-91
2021/07/11 04:19:24;;;;;;;6.30;2.22;;;18.40;99.90;;;;;;4977512;28;20105;-91
2021/07/11 04:21:53;;;;;;;3.22;2.20;;;18.50;99.90;;;;;;4977132;28;20043;-91
2021/07/11 04:24:20;;;;;;;5.38;1.90;;;18.50;99.90;;;;;;4961124;28;20049;-91
2021/07/11 04:26:47;;;;;;;3.72;1.83;;;18.50;99.90;;;;;;4961752;28;20149;-91
2021/07/11 04:29:14;;;;;;;7.22;2.20;;;18.60;99.90;;;;;;4979043;28;20014;-91
2021/07/11 04:31:56;;;;;;;4.03;1.80;;;18.50;99.90;;;;;;4961015;28;20023;-91
2021/07/11 04:34:35;;;;;;;4.88;2.10;;;18.50;99.90;;;;;;4979715;28;20086;-91
2021/07/11 04:37:04;;;;;;;4.40;1.90;;;18.40;99.90;;;;;;4957909;28;20027;-91
2021/07/11 04:39:30;;;;;;;4.65;2.13;;;18.40;99.90;;;;;;4977171;28;20050;-91
2021/07/11 04:41:57;;;;;;;4.63;1.73;;;18.40;99.90;;;;;;4975221;28;20038;-90
2021/07/11 04:44:24;;;;;;;9.77;2.20;;;18.40;99.90;;;;;;4974519;28;20159;-91
2021/07/11 04:46:50;;;;;;;4.95;1.75;;;18.40;99.90;;;;;;4957770;28;20095;-91
2021/07/11 04:49:24;;;;;;;7.40;1.90;;;18.40;99.90;;;;;;4974618;28;20251;-91
2021/07/11 04:51:51;;;;;;;2.58;1.58;;;18.40;99.90;;;;;;4975002;28;20047;-91
2021/07/11 04:54:17;;;;;;;3.70;1.98;;;18.40;99.90;;;;;;4977417;28;20105;-91
2021/07/11 04:56:43;;;;;;;4.82;1.88;;;18.40;99.90;;;;;;4972807;28;20114;-91
2021/07/11 04:59:08;;;;;;;3.75;1.75;;;18.40;99.90;;;;;;4976379;28;20448;-90
2021/07/11 05:01:34;;;;;;;5.65;1.90;;;18.50;99.90;;;;;;4957955;28;20035;-91
2021/07/11 05:04:02;;;;;;;4.82;1.70;;;18.50;99.90;;;;;;4974966;28;20046;-91
2021/07/11 05:06:28;;;;;;;6.05;2.10;;;18.50;99.90;;;;;;4976547;28;20058;-91
2021/07/11 05:08:54;;;;;;;5.53;1.70;;;18.60;99.90;;;;;;4978160;28;20014;-91
2021/07/11 05:11:20;;;;;;;3.80;1.45;;;18.60;99.90;;;;;;4973159;28;20022;-90
2021/07/11 05:13:48;;;;;;;4.35;1.65;;;18.60;99.90;;;;;;4975731;28;20027;-91
2021/07/11 05:16:18;;;;;;;4.78;2.03;;;18.60;99.90;;;;;;4973067;28;20545;-91
2021/07/11 05:18:43;;;;;;;3.53;1.90;;;18.60;99.90;;;;;;4977001;28;20038;-91
2021/07/11 05:21:09;;;;;;;2.85;1.65;;;18.60;99.90;;;;;;4973901;28;20105;-91
2021/07/11 05:23:35;;;;;;;7.97;1.67;;;18.60;99.90;;;;;;4975368;28;20027;-91
2021/07/11 05:26:00;;;;;;;4.47;1.52;;;18.70;99.90;;;;;;4975006;28;20030;-91
2021/07/11 05:28:33;;;;;;;3.50;1.98;;;18.70;99.90;;;;;;4975161;28;20438;-90
2021/07/11 05:30:59;;;;;;;5.03;1.60;;;18.70;99.90;;;;;;4957955;28;20121;-91
2021/07/11 05:33:25;;;;;;;4.28;1.58;;;18.70;99.90;;;;;;4974454;28;20046;-91
2021/07/11 05:35:54;;;;;;;4.30;1.58;;;18.80;99.90;;;;;;4975152;28;20523;-91
2021/07/11 05:38:20;;;;;;;3.97;1.70;;;18.80;99.90;;;;;;4992830;28;20089;-91
2021/07/11 05:40:46;;;;;;;3.88;2.00;;;18.80;99.90;;;;;;4976686;28;20015;-91
2021/07/11 05:43:13;;;;;;;4.15;1.50;;;18.90;99.90;;;;;;4962605;28;20034;-91
2021/07/11 05:45:40;;;;;;;4.53;1.98;;;18.90;99.90;;;;;;4962431;28;20159;-90
2021/07/11 05:48:06;;;;;;;4.78;1.67;;;18.90;99.90;;;;;;4944625;28;20050;-91
2021/07/11 05:50:32;;;;;;;2.50;1.15;;;18.90;99.90;;;;;;4956275;28;20031;-90
2021/07/11 05:52:58;;;;;;;3.83;1.52;;;18.90;99.90;;;;;;4975524;28;20022;-91
2021/07/11 05:55:24;;;;;;;3.83;1.75;;;19.00;99.90;;;;;;4978648;28;20483;-91
2021/07/11 05:57:49;;;;;;;4.38;1.67;;;19.00;99.90;;;;;;4976031;28;20492;-91
2021/07/11 06:00:16;;;;;;;3.00;1.70;;;19.00;99.90;;;;;;4964505;28;20027;-90
2021/07/11 06:02:42;;;;;;;3.67;1.75;;;19.00;99.90;;;;;;4960042;28;20082;-91
2021/07/11 06:05:08;;;;;;;10.05;2.10;;;18.90;99.90;;;;;;4977979;28;20554;-90
2021/07/11 06:07:38;;;;;;;5.60;1.80;;;18.90;99.90;;;;;;4962647;28;20034;-90
2021/07/11 06:10:05;;;;;;;4.90;1.80;;;18.90;99.90;;;;;;4976772;28;20038;-91
2021/07/11 06:12:34;;;;;;;3.33;2.30;;;18.90;99.90;;;;;;4981396;28;20051;-91
2021/07/11 06:15:03;;;;;;;4.35;1.52;;;18.80;99.90;;;;;;4964169;28;20061;-91
2021/07/11 06:17:32;;;;;;;6.10;2.10;;;18.90;99.90;;;;;;4957767;28;20023;-91
2021/07/11 06:20:10;;;;;;;4.05;2.03;;;18.80;99.90;;;;;;4976697;28;20030;-91
2021/07/11 06:22:37;;;;;;;2.55;1.80;;;18.80;99.90;;;;;;4976977;28;20027;-90
2021/07/11 06:25:08;;;;;;;3.10;1.70;;;19.00;99.90;;;;;;4977952;28;20050;-91
2021/07/11 06:27:41;;;;;;;5.45;1.83;;;19.00;99.90;;;;;;4977625;28;20058;-90
2021/07/11 06:30:12;;;;;;;4.05;1.77;;;19.20;99.90;;;;;;4960415;28;20381;-91
2021/07/11 06:32:39;;;;;;;3.63;1.70;;;19.20;99.90;;;;;;4956905;28;20035;-91
2021/07/11 06:35:07;;;;;;;3.00;1.60;;;19.30;99.90;;;;;;4955157;28;20435;-91
2021/07/11 06:37:33;;;;;;;3.95;1.70;;;19.30;99.90;;;;;;4952383;28;20023;-91
2021/07/11 06:39:59;;;;;;;3.83;1.70;;;19.20;99.90;;;;;;4988570;28;20057;-91
2021/07/11 06:42:25;;;;;;;4.13;1.75;;;19.20;99.90;;;;;;4963095;28;20023;-91
2021/07/11 06:44:55;;;;;;;3.28;1.77;;;19.30;99.90;;;;;;4975522;28;20054;-91
2021/07/11 06:47:20;;;;;;;3.15;1.80;;;19.30;99.90;;;;;;4978413;28;20022;-90
2021/07/11 06:49:46;;;;;;;2.92;1.50;;;19.20;99.90;;;;;;4956334;28;20118;-92
2021/07/11 06:52:22;;;;;;;;;;;;;;;;;;;;;
2021/07/11 06:54:56;;;;;;;4.40;1.80;;;19.30;99.90;;;;;;4972424;28;20041;-94
2021/07/11 06:57:42;;;;;;;4.45;1.92;;;19.20;99.90;;;;;;4957150;28;20051;-93
2021/07/11 07:00:10;;;;;;;4.03;1.90;;;19.30;99.90;;;;;;4956962;28;20064;-93
2021/07/11 07:02:39;;;;;;;3.85;1.75;;;19.20;99.90;;;;;;4971081;28;20047;-93
2021/07/11 07:05:08;;;;;;;4.13;1.90;;;19.20;99.90;;;;;;4951604;28;20039;-94
2021/07/11 07:07:38;;;;;;;3.17;1.60;;;19.20;99.90;;;;;;4967805;28;20082;-94
2021/07/11 07:10:08;;;;;;;3.92;1.88;;;19.30;99.90;;;;;;4951140;28;20059;-93
2021/07/11 07:12:36;;;;;;;2.45;1.50;;;19.40;99.90;;;;;;4950637;28;20110;-92
2021/07/11 07:15:06;;;;;;;5.93;1.70;;;19.50;99.90;;;;;;4955588;28;20051;-92
2021/07/11 07:17:32;;;;;;;4.65;1.60;;;19.50;99.90;;;;;;4952999;28;20010;-94
2021/07/11 07:20:07;;;;;;;4.65;1.85;;;19.50;99.90;;;;;;4950651;28;20037;-94
2021/07/11 07:26:17;;;;;;;;;;;;;;;;;;;;;
2021/07/11 07:32:13;;;;;;;5.32;1.48;;;19.40;99.90;;;;;;4874085;29;20040;-93
2021/07/11 07:34:38;;;;;;;6.35;1.58;;;19.30;99.90;;;;;;4917407;29;20036;-92
2021/07/11 07:37:04;;;;;;;3.13;1.27;;;19.40;99.90;;;;;;4937631;28;20024;-92
2021/07/11 07:39:30;;;;;;;3.75;1.40;;;19.60;99.90;;;;;;4957914;28;20027;-93
2021/07/11 07:41:56;;;;;;;2.75;1.35;;;19.60;99.90;;;;;;4957162;28;20403;-90
2021/07/11 07:44:22;;;;;;;3.45;1.38;;;19.70;99.90;;;;;;4974238;28;20129;-92
2021/07/11 07:46:48;;;;;;;3.15;1.10;;;19.70;99.90;;;;;;4974433;28;20397;-93
2021/07/11 07:49:17;;;;;;;4.10;1.15;;;19.80;99.90;;;;;;4956865;28;20019;-92
2021/07/11 07:51:43;;;;;;;1.75;0.90;;;19.80;99.90;;;;;;4957362;28;20030;-91
2021/07/11 07:54:09;;;;;;;1.27;0.90;;;19.80;99.90;;;;;;4957081;28;20073;-91
2021/07/11 07:56:35;;;;;;;1.83;1.00;;;19.80;99.90;;;;;;4973920;28;20037;-91
2021/07/11 07:59:01;;;;;;;5.63;1.20;;;19.90;99.90;;;;;;4956703;28;20551;-91
2021/07/11 08:01:27;;;;;;;2.67;0.93;;;19.80;99.90;;;;;;4956715;28;20042;-90
2021/07/11 08:03:52;;;;;;;1.48;0.80;;;19.70;99.90;;;;;;4956581;28;20053;-91
2021/07/11 08:06:18;;;;;;;1.45;1.00;;;19.80;99.90;;;;;;4967544;28;20039;-91
2021/07/11 08:08:44;;;;;;;3.72;1.27;;;20.00;99.90;;;;;;4956159;28;20105;-91
2021/07/11 08:11:10;;;;;;;4.03;1.25;;;20.00;99.90;;;;;;4954446;28;20031;-91
2021/07/11 08:13:37;;;;;;;2.05;1.00;;;20.00;99.90;;;;;;4953066;28;20110;-91
2021/07/11 08:16:07;;;;;;;2.83;1.40;;;19.90;99.90;;;;;;4974321;28;20059;-92
2021/07/11 08:18:35;;;;;;;2.25;1.02;;;19.90;99.90;;;;;;4956310;28;20023;-91
2021/07/11 08:21:01;;;;;;;3.15;1.05;;;19.90;99.90;;;;;;4956175;28;20454;-91
2021/07/11 08:23:27;;;;;;;4.10;1.00;;;19.90;99.90;;;;;;4952875;28;20157;-91
2021/07/11 08:25:53;;;;;;;2.72;0.82;;;19.90;99.90;;;;;;4955761;28;20031;-91
2021/07/11 08:28:18;;;;;;;2.90;1.23;;;19.90;99.90;;;;;;4973389;28;20503;-91
2021/07/11 08:30:45;;;;;;;1.77;1.00;;;19.90;99.90;;;;;;4956253;28;20022;-91
2021/07/11 08:33:10;;;;;;;2.85;1.23;;;20.00;99.90;;;;;;4961405;28;20037;-91
2021/07/11 08:35:36;;;;;;;4.13;1.25;;;20.10;99.90;;;;;;4957915;28;20015;-90
2021/07/11 08:38:02;;;;;;;2.67;1.00;;;20.00;99.90;;;;;;4958698;28;20041;-92
2021/07/11 08:40:33;;;;;;;1.90;1.13;;;20.00;99.90;;;;;;4955363;28;20058;-78
2021/07/11 08:43:01;;;;;;;3.50;1.10;;;20.00;99.90;;;;;;4970961;28;20038;-78
2021/07/11 08:45:26;;;;;;;1.75;1.25;;;19.90;99.90;;;;;;4971990;28;20492;-79
2021/07/11 08:47:52;;;;;;;2.75;1.25;;;20.00;99.90;;;;;;4972015;28;20018;-78
2021/07/11 08:50:18;;;;;;;3.47;1.17;;;19.90;99.90;;;;;;4971846;28;20027;-77
2021/07/11 08:52:46;;;;;;;2.20;1.10;;;20.00;99.90;;;;;;4963668;28;20019;-78
2021/07/11 08:55:24;;;;;;;3.13;1.40;;;20.00;99.90;;;;;;4963872;28;20035;-77
2021/07/11 08:57:56;;;;;;;3.17;1.27;;;20.00;99.90;;;;;;4971593;28;20045;-78
2021/07/11 09:00:28;;;;;;;4.70;1.40;;;20.00;99.90;;;;;;4971545;28;20119;-78
2021/07/11 09:02:54;;;;;;;6.00;1.80;;;20.00;99.90;;;;;;4971398;28;20060;-79
2021/07/11 09:05:40;;;;;;;3.85;1.60;;;20.10;99.90;;;;;;4971432;28;20137;-77
2021/07/11 09:08:12;;;;;;;3.30;1.65;;;20.10;99.90;;;;;;4971520;28;20472;-78
2021/07/11 09:10:39;;;;;;;4.20;1.63;;;20.20;99.90;;;;;;4971691;28;20022;-77
2021/07/11 09:13:11;;;;;;;3.17;1.40;;;20.20;99.90;;;;;;4970271;28;20447;-77
2021/07/11 09:15:40;;;;;;;3.67;1.40;;;20.30;99.90;;;;;;4971145;28;20130;-77
2021/07/11 09:18:06;;;;;;;3.10;1.50;;;20.30;99.90;;;;;;4971646;28;20029;-77
2021/07/11 09:20:32;;;;;;;3.72;1.58;;;20.40;99.90;;;;;;4971320;28;20391;-81
2021/07/11 09:23:02;;;;;;;2.75;1.30;;;20.30;99.90;;;;;;4971603;28;20101;-77
2021/07/11 09:25:29;;;;;;;4.80;1.38;;;20.30;99.90;;;;;;4971230;28;20118;-77
2021/07/11 09:27:55;;;;;;;2.13;1.10;;;20.40;99.90;;;;;;4971528;28;20055;-78
2021/07/11 09:30:20;;;;;;;2.10;1.10;;;20.40;99.90;;;;;;4971160;28;20109;-77
2021/07/11 09:32:51;;;;;;;1.95;1.10;;;20.50;99.90;;;;;;4971293;28;20110;-77
2021/07/11 09:35:21;;;;;;;2.28;1.13;;;20.60;99.90;;;;;;4971347;28;20027;-80
2021/07/11 09:37:52;;;;;;;3.72;1.42;;;20.70;99.90;;;;;;4971127;28;20015;-79
2021/07/11 09:40:20;;;;;;;3.90;1.42;;;20.70;99.90;;;;;;4971276;28;20162;-76
2021/07/11 09:42:50;;;;;;;2.30;1.27;;;20.80;99.90;;;;;;4969974;28;20101;-76
2021/07/11 09:45:21;;;;;;;4.00;1.85;;;21.00;99.90;;;;;;4971325;28;20150;-77
2021/07/11 09:47:49;;;;;;;1.65;1.10;;;21.10;99.90;;;;;;4971247;28;20122;-77
2021/07/11 09:50:21;;;;;;;2.08;1.30;;;20.90;99.90;;;;;;4953638;28;20380;-80
2021/07/11 09:52:49;;;;;;;3.95;1.55;;;20.80;99.90;;;;;;4971063;28;20542;-76
2021/07/11 09:55:20;;;;;;;2.28;1.23;;;20.70;99.90;;;;;;4971076;28;20584;-77
2021/07/11 09:57:47;;;;;;;3.15;1.35;;;20.70;99.90;;;;;;4971196;28;20081;-79
2021/07/11 10:00:22;;;;;;;2.05;1.20;;;20.80;99.90;;;;;;4953790;28;20027;-78
2021/07/11 10:02:50;;;;;;;1.98;1.20;;;20.80;99.90;;;;;;4970885;28;20023;-77
2021/07/11 10:05:17;;;;;;;3.20;1.45;;;20.80;99.90;;;;;;4970828;28;20041;-78
2021/07/11 10:07:44;;;;;;;1.75;0.90;;;20.80;99.90;;;;;;4970810;28;20019;-78
2021/07/11 10:10:13;;;;;;;2.38;1.10;;;21.00;99.90;;;;;;4971200;28;20371;-78
2021/07/11 10:12:39;;;;;;;3.33;1.70;;;21.00;99.90;;;;;;4969590;28;20047;-78
2021/07/11 10:15:11;;;;;;;6.93;1.58;;;21.00;99.90;;;;;;4970716;28;20047;-78
2021/07/11 10:17:45;;;;;;;5.68;2.97;;;21.10;99.90;;;;;;4970919;28;20139;-78
2021/07/11 10:20:12;;;;;;;2.58;1.38;;;21.00;99.90;;;;;;4970834;28;20019;-79
2021/07/11 10:22:44;;;;;;;3.20;1.42;;;21.10;99.90;;;;;;4970414;28;20635;-78
2021/07/11 10:25:16;;;;;;;3.45;1.60;;;21.20;99.90;;;;;;4970920;28;20039;-78
2021/07/11 10:27:43;;;;;;;3.47;1.40;;;21.20;99.90;;;;;;4970765;28;20030;-79
2021/07/11 10:30:10;;;;;;;3.13;1.35;;;21.30;99.90;;;;;;4970893;28;20031;-79
2021/07/11 10:32:36;;;;;;;14.95;3.60;;;21.40;99.90;;;;;;4970652;28;20022;-78
2021/07/11 10:35:08;;;;;;;360.67;80.47;;;21.40;99.90;;;;;;4970724;28;20031;-79
2021/07/11 10:37:47;;;;;;;96.82;22.20;;;21.50;99.90;;;;;;4970987;28;20271;-76
2021/07/11 10:40:24;;;;;;;492.20;118.03;;;21.70;99.90;;;;;;4974440;28;20019;-77
2021/07/11 10:42:51;;;;;;;34.42;10.02;;;22.00;99.90;;;;;;4972409;28;20030;-77
2021/07/11 10:45:19;;;;;;;14.57;5.00;;;21.90;99.90;;;;;;4973291;28;20558;-77
2021/07/11 10:47:45;;;;;;;5.05;1.83;;;21.80;99.90;;;;;;4974062;28;20476;-76
2021/07/11 10:50:23;;;;;;;3.47;1.63;;;21.90;99.90;;;;;;4973781;28;20031;-76
2021/07/11 10:52:50;;;;;;;9.45;3.10;;;21.80;99.90;;;;;;4973641;28;20098;-78
2021/07/11 10:55:16;;;;;;;11.10;3.08;;;21.70;99.90;;;;;;4970329;28;20033;-77
2021/07/11 10:57:41;;;;;;;4.90;1.60;;;21.80;99.90;;;;;;4973358;28;20064;-77
2021/07/11 11:00:41;;;;;;;6.18;1.67;;;22.00;99.90;;;;;;4973500;28;20034;-78
2021/07/11 11:03:25;;;;;;;5.68;1.42;;;22.00;99.90;;;;;;4955689;28;20022;-77
2021/07/11 11:05:52;;;;;;;6.37;2.37;;;22.00;99.90;;;;;;4973634;28;20173;-78
2021/07/11 11:08:23;;;;;;;4.80;1.70;;;22.40;99.90;;;;;;4973521;28;20030;-77
2021/07/11 11:10:53;;;;;;;6.00;2.53;;;22.30;99.90;;;;;;4973522;28;20025;-77
2021/07/11 11:13:22;;;;;;;5.53;2.25;;;22.30;99.90;;;;;;4973530;28;20102;-77
2021/07/11 11:15:55;;;;;;;3.58;1.88;;;22.40;99.90;;;;;;4974101;28;20427;-86
2021/07/11 11:18:51;;;;;;;3.80;1.88;;;22.50;99.90;;;;;;4954744;28;20031;-85
2021/07/11 11:21:19;;;;;;;6.70;2.13;;;22.60;99.90;;;;;;4972084;28;20065;-87
2021/07/11 11:23:46;;;;;;;2.25;1.67;;;22.80;99.90;;;;;;4973272;28;20499;-86
2021/07/11 11:26:21;;;;;;;4.80;2.05;;;22.90;99.90;;;;;;4956262;28;20097;-87
2021/07/11 11:28:47;;;;;;;6.63;2.70;;;23.00;99.90;;;;;;4973667;28;20034;-86
2021/07/11 11:31:18;;;;;;;4.22;1.60;;;23.10;99.90;;;;;;4973290;28;20027;-87
2021/07/11 11:34:04;;;;;;;6.57;1.92;;;23.10;99.90;;;;;;4973569;28;20106;-87
2021/07/11 11:36:37;;;;;;;5.05;1.85;;;23.10;99.90;;;;;;4973476;28;20019;-86
2021/07/11 11:39:25;;;;;;;3.55;1.77;;;22.90;99.90;;;;;;4973514;28;20031;-86
2021/07/11 11:41:51;;;;;;;5.30;2.17;;;22.60;99.90;;;;;;4973336;28;20050;-86
2021/07/11 11:44:21;;;;;;;4.65;1.98;;;22.90;99.90;;;;;;4973057;28;20122;-86
2021/07/11 11:46:55;;;;;;;5.05;1.63;;;23.00;99.90;;;;;;4973111;28;20487;-87
2021/07/11 11:49:23;;;;;;;5.03;2.17;;;23.20;99.90;;;;;;4971053;28;20074;-87
2021/07/11 11:51:50;;;;;;;4.63;1.95;;;23.30;99.90;;;;;;4955534;28;20271;-87
2021/07/11 11:54:38;;;;;;;3.08;1.80;;;23.60;99.90;;;;;;4972747;28;20027;-88
2021/07/11 11:57:07;;;;;;;5.00;1.95;;;23.80;99.90;;;;;;4954865;28;20030;-86
2021/07/11 11:59:33;;;;;;;5.05;2.30;;;23.60;99.90;;;;;;4972925;28;20376;-85
2021/07/11 12:02:11;;;;;;;3.25;2.03;;;24.00;99.90;;;;;;4972913;28;20039;-87
2021/07/11 12:04:37;;;;;;;4.20;1.80;;;24.60;99.90;;;;;;4972525;28;20038;-87
2021/07/11 12:07:07;;;;;;;4.80;1.85;;;24.60;99.90;;;;;;4972374;28;20026;-87
2021/07/11 12:09:34;;;;;;;5.15;1.50;;;24.70;99.90;;;;;;4972933;28;20027;-86
2021/07/11 12:12:08;;;;;;;4.63;2.00;;;24.20;99.90;;;;;;4972514;28;20030;-86
2021/07/11 12:14:35;;;;;;;3.22;1.70;;;24.30;99.90;;;;;;4972630;28;20015;-87
2021/07/11 12:17:14;;;;;;;3.38;1.55;;;24.60;99.90;;;;;;4972938;28;20511;-86
2021/07/11 12:19:48;;;;;;;2.80;1.75;;;24.60;99.90;;;;;;4972710;28;20169;-87
2021/07/11 12:22:32;;;;;;;4.47;2.10;;;25.10;99.90;;;;;;4972186;28;20472;-88
2021/07/11 12:27:43;;;;;;;3.90;2.00;;;25.60;99.20;;;;;;4972914;28;20402;-87
2021/07/11 12:30:13;;;;;;;3.38;1.65;;;25.50;98.60;;;;;;4972743;28;20483;-88
2021/07/11 12:32:46;;;;;;;3.55;2.20;;;25.40;98.70;;;;;;4972711;28;20022;-89
2021/07/11 12:35:14;;;;;;;4.05;2.30;;;25.90;99.10;;;;;;4972315;28;20069;-88
2021/07/11 12:37:49;;;;;;;4.43;2.00;;;26.00;98.10;;;;;;4972829;28;20119;-88
2021/07/11 12:40:19;;;;;;;3.85;1.90;;;26.40;97.50;;;;;;4972934;28;20038;-89
2021/07/11 12:42:45;;;;;;;3.72;1.40;;;26.60;97.00;;;;;;4972713;28;20101;-88
2021/07/11 12:45:20;;;;;;;4.05;1.45;;;26.70;96.80;;;;;;4972299;28;20499;-89
2021/07/11 12:47:50;;;;;;;2.42;1.40;;;26.90;96.50;;;;;;4973013;28;20360;-89
2021/07/11 12:50:16;;;;;;;2.83;1.92;;;27.30;96.10;;;;;;4958647;28;20027;-89
2021/07/11 12:52:53;;;;;;;6.72;1.40;;;27.60;95.70;;;;;;4972161;28;20425;-88
2021/07/11 12:55:19;;;;;;;4.35;1.30;;;28.30;94.80;;;;;;4971826;28;20514;-89
2021/07/11 12:57:45;;;;;;;5.40;1.80;;;27.90;94.10;;;;;;4972724;28;20019;-88
2021/07/11 13:00:11;;;;;;;4.25;1.35;;;28.10;94.50;;;;;;4972452;28;20431;-89
2021/07/11 13:02:40;;;;;;;3.13;1.67;;;28.10;94.20;;;;;;4971788;28;20034;-88
2021/07/11 13:05:10;;;;;;;2.50;1.40;;;28.40;94.00;;;;;;4972408;28;20058;-88
2021/07/11 13:07:36;;;;;;;3.55;1.35;;;28.50;93.10;;;;;;4972222;28;20011;-88
2021/07/11 13:10:07;;;;;;;3.28;1.25;;;28.80;92.70;;;;;;4972486;28;20286;-87